sensor_id;sensor_type;location;lat;lon;timestamp;temperature;humidity
21298;DHT22;10808;48.010;11.326;2023-06-14T00:00:53;14.80;72.30
21298;DHT22;10808;48.010;11.326;2023-06-14T00:03:24;14.70;72.40
21298;DHT22;10808;48.010;11.326;2023-06-14T00:05:50;14.70;72.40
21298;DHT22;10808;48.010;11.326;2023-06-14T00:08:16;14.60;72.60
21298;DHT22;10808;48.010;11.326;2023-06-14T00:10:44;14.60;72.90
21298;DHT22;10808;48.010;11.326;2023-06-14T00:13:11;14.60;72.90
21298;DHT22;10808;48.010;11.326;2023-06-14T00:15:37;14.50;73.10
21298;DHT22;10808;48.010;11.326;2023-06-14T00:18:04;14.50;72.90
21298;DHT22;10808;48.010;11.326;2023-06-14T00:20:32;14.50;73.10
21298;DHT22;10808;48.010;11.326;2023-06-14T00:23:00;14.50;73.00
21298;DHT22;10808;48.010;11.326;2023-06-14T00:25:26;14.40;73.40
21298;DHT22;10808;48.010;11.326;2023-06-14T00:27:54;14.40;73.40
21298;DHT22;10808;48.010;11.326;2023-06-14T00:30:20;14.30;73.40
21298;DHT22;10808;48.010;11.326;2023-06-14T00:32:47;14.30;73.40
21298;DHT22;10808;48.010;11.326;2023-06-14T00:35:13;14.30;73.70
21298;DHT22;10808;48.010;11.326;2023-06-14T00:37:40;14.20;74.00
21298;DHT22;10808;48.010;11.326;2023-06-14T00:40:06;14.20;74.50
21298;DHT22;10808;48.010;11.326;2023-06-14T00:42:33;14.10;74.50
21298;DHT22;10808;48.010;11.326;2023-06-14T00:44:59;14.10;74.50
21298;DHT22;10808;48.010;11.326;2023-06-14T00:47:26;14.00;74.80
21298;DHT22;10808;48.010;11.326;2023-06-14T00:49:53;14.00;74.80
21298;DHT22;10808;48.010;11.326;2023-06-14T00:52:21;14.00;74.80
21298;DHT22;10808;48.010;11.326;2023-06-14T00:54:50;13.90;75.30
21298;DHT22;10808;48.010;11.326;2023-06-14T00:57:16;13.90;75.70
21298;DHT22;10808;48.010;11.326;2023-06-14T00:59:45;13.80;76.10
21298;DHT22;10808;48.010;11.326;2023-06-14T01:02:12;13.80;76.20
21298;DHT22;10808;48.010;11.326;2023-06-14T01:04:39;13.70;76.40
21298;DHT22;10808;48.010;11.326;2023-06-14T01:13:19;13.70;79.60
21298;DHT22;10808;48.010;11.326;2023-06-14T01:15:47;13.60;80.10
21298;DHT22;10808;48.010;11.326;2023-06-14T01:18:13;13.60;79.50
21298;DHT22;10808;48.010;11.326;2023-06-14T01:20:47;13.50;80.00
21298;DHT22;10808;48.010;11.326;2023-06-14T01:23:17;13.50;80.20
21298;DHT22;10808;48.010;11.326;2023-06-14T01:25:44;13.50;80.10
21298;DHT22;10808;48.010;11.326;2023-06-14T01:28:11;13.50;79.70
21298;DHT22;10808;48.010;11.326;2023-06-14T01:30:42;13.40;79.20
21298;DHT22;10808;48.010;11.326;2023-06-14T01:33:18;13.40;78.70
21298;DHT22;10808;48.010;11.326;2023-06-14T01:35:47;13.40;80.80
21298;DHT22;10808;48.010;11.326;2023-06-14T01:38:14;13.30;82.20
21298;DHT22;10808;48.010;11.326;2023-06-14T01:40:46;13.30;83.20
21298;DHT22;10808;48.010;11.326;2023-06-14T01:43:14;13.30;83.90
21298;DHT22;10808;48.010;11.326;2023-06-14T01:45:41;13.20;84.80
21298;DHT22;10808;48.010;11.326;2023-06-14T01:48:08;13.20;85.90
21298;DHT22;10808;48.010;11.326;2023-06-14T01:50:34;13.20;86.70
21298;DHT22;10808;48.010;11.326;2023-06-14T01:53:01;13.10;86.20
21298;DHT22;10808;48.010;11.326;2023-06-14T01:55:27;13.10;85.50
21298;DHT22;10808;48.010;11.326;2023-06-14T01:57:53;13.00;84.80
21298;DHT22;10808;48.010;11.326;2023-06-14T02:00:20;13.00;85.20
21298;DHT22;10808;48.010;11.326;2023-06-14T02:02:47;13.00;86.20
21298;DHT22;10808;48.010;11.326;2023-06-14T02:05:13;13.00;85.20
21298;DHT22;10808;48.010;11.326;2023-06-14T02:07:39;12.90;84.80
21298;DHT22;10808;48.010;11.326;2023-06-14T02:10:06;12.80;84.70
21298;DHT22;10808;48.010;11.326;2023-06-14T02:12:32;12.80;85.50
21298;DHT22;10808;48.010;11.326;2023-06-14T02:14:58;12.80;85.80
21298;DHT22;10808;48.010;11.326;2023-06-14T02:17:24;12.80;86.20
21298;DHT22;10808;48.010;11.326;2023-06-14T02:19:50;12.80;85.30
21298;DHT22;10808;48.010;11.326;2023-06-14T02:22:16;12.70;87.20
21298;DHT22;10808;48.010;11.326;2023-06-14T02:24:43;12.70;86.30
21298;DHT22;10808;48.010;11.326;2023-06-14T02:27:09;12.60;86.20
21298;DHT22;10808;48.010;11.326;2023-06-14T02:29:36;12.60;86.90
21298;DHT22;10808;48.010;11.326;2023-06-14T02:32:06;12.50;86.40
21298;DHT22;10808;48.010;11.326;2023-06-14T02:34:33;12.50;86.70
21298;DHT22;10808;48.010;11.326;2023-06-14T02:37:00;12.50;86.70
21298;DHT22;10808;48.010;11.326;2023-06-14T02:39:29;12.50;86.20
21298;DHT22;10808;48.010;11.326;2023-06-14T02:41:55;12.40;85.80
21298;DHT22;10808;48.010;11.326;2023-06-14T02:44:25;12.40;86.60
21298;DHT22;10808;48.010;11.326;2023-06-14T02:46:54;12.40;87.30
21298;DHT22;10808;48.010;11.326;2023-06-14T02:49:21;12.30;87.50
21298;DHT22;10808;48.010;11.326;2023-06-14T02:51:47;12.30;87.20
21298;DHT22;10808;48.010;11.326;2023-06-14T02:54:14;12.30;88.00
21298;DHT22;10808;48.010;11.326;2023-06-14T02:56:40;12.30;88.60
21298;DHT22;10808;48.010;11.326;2023-06-14T02:59:07;12.30;88.30
21298;DHT22;10808;48.010;11.326;2023-06-14T03:01:36;12.30;87.20
21298;DHT22;10808;48.010;11.326;2023-06-14T03:04:09;12.20;87.70
21298;DHT22;10808;48.010;11.326;2023-06-14T03:06:36;12.20;87.50
21298;DHT22;10808;48.010;11.326;2023-06-14T03:09:03;12.10;87.00
21298;DHT22;10808;48.010;11.326;2023-06-14T03:11:33;12.10;88.30
21298;DHT22;10808;48.010;11.326;2023-06-14T03:14:00;12.10;87.00
21298;DHT22;10808;48.010;11.326;2023-06-14T03:16:26;12.00;86.80
21298;DHT22;10808;48.010;11.326;2023-06-14T03:18:54;12.00;87.50
21298;DHT22;10808;48.010;11.326;2023-06-14T03:21:20;12.00;87.30
21298;DHT22;10808;48.010;11.326;2023-06-14T03:23:47;11.90;87.70
21298;DHT22;10808;48.010;11.326;2023-06-14T03:26:14;11.90;87.80
21298;DHT22;10808;48.010;11.326;2023-06-14T03:28:44;11.80;87.00
21298;DHT22;10808;48.010;11.326;2023-06-14T03:31:14;11.90;88.30
21298;DHT22;10808;48.010;11.326;2023-06-14T03:33:40;11.90;89.80
21298;DHT22;10808;48.010;11.326;2023-06-14T03:36:07;11.90;90.50
21298;DHT22;10808;48.010;11.326;2023-06-14T03:38:33;11.90;90.40
21298;DHT22;10808;48.010;11.326;2023-06-14T03:41:00;11.90;90.00
21298;DHT22;10808;48.010;11.326;2023-06-14T03:43:26;11.90;89.50
21298;DHT22;10808;48.010;11.326;2023-06-14T03:45:52;11.90;89.50
21298;DHT22;10808;48.010;11.326;2023-06-14T03:48:18;11.80;89.10
21298;DHT22;10808;48.010;11.326;2023-06-14T03:50:44;11.80;89.80
21298;DHT22;10808;48.010;11.326;2023-06-14T03:53:11;11.80;89.80
21298;DHT22;10808;48.010;11.326;2023-06-14T03:55:37;11.80;89.90
21298;DHT22;10808;48.010;11.326;2023-06-14T03:58:03;11.80;90.10
21298;DHT22;10808;48.010;11.326;2023-06-14T04:00:29;11.80;90.30
21298;DHT22;10808;48.010;11.326;2023-06-14T04:02:55;11.90;90.60
21298;DHT22;10808;48.010;11.326;2023-06-14T04:05:21;11.80;90.40
21298;DHT22;10808;48.010;11.326;2023-06-14T04:07:51;11.80;89.90
21298;DHT22;10808;48.010;11.326;2023-06-14T04:10:17;11.80;90.30
21298;DHT22;10808;48.010;11.326;2023-06-14T04:12:44;11.80;90.60
21298;DHT22;10808;48.010;11.326;2023-06-14T04:15:11;11.80;90.50
21298;DHT22;10808;48.010;11.326;2023-06-14T04:17:38;11.90;90.80
21298;DHT22;10808;48.010;11.326;2023-06-14T04:20:04;11.90;90.40
21298;DHT22;10808;48.010;11.326;2023-06-14T04:22:32;12.00;90.50
21298;DHT22;10808;48.010;11.326;2023-06-14T04:24:58;12.00;90.90
21298;DHT22;10808;48.010;11.326;2023-06-14T04:27:26;12.10;91.10
21298;DHT22;10808;48.010;11.326;2023-06-14T04:29:53;12.20;91.60
21298;DHT22;10808;48.010;11.326;2023-06-14T04:32:26;12.20;91.80
21298;DHT22;10808;48.010;11.326;2023-06-14T04:34:58;12.30;91.90
21298;DHT22;10808;48.010;11.326;2023-06-14T04:37:25;12.30;91.70
21298;DHT22;10808;48.010;11.326;2023-06-14T04:39:55;12.40;92.40
21298;DHT22;10808;48.010;11.326;2023-06-14T04:42:25;12.40;92.40
21298;DHT22;10808;48.010;11.326;2023-06-14T04:44:55;12.50;92.60
21298;DHT22;10808;48.010;11.326;2023-06-14T04:47:21;12.50;92.90
21298;DHT22;10808;48.010;11.326;2023-06-14T04:49:48;12.60;92.90
21298;DHT22;10808;48.010;11.326;2023-06-14T04:52:14;12.70;92.30
21298;DHT22;10808;48.010;11.326;2023-06-14T04:54:41;12.80;92.50
21298;DHT22;10808;48.010;11.326;2023-06-14T04:57:08;12.90;91.90
21298;DHT22;10808;48.010;11.326;2023-06-14T04:59:34;12.90;93.00
21298;DHT22;10808;48.010;11.326;2023-06-14T05:02:01;13.00;93.00
21298;DHT22;10808;48.010;11.326;2023-06-14T05:04:27;13.10;93.60
21298;DHT22;10808;48.010;11.326;2023-06-14T05:06:54;13.20;93.40
21298;DHT22;10808;48.010;11.326;2023-06-14T05:09:20;13.30;91.70
21298;DHT22;10808;48.010;11.326;2023-06-14T05:11:47;13.40;92.80
21298;DHT22;10808;48.010;11.326;2023-06-14T05:14:14;13.50;93.50
21298;DHT22;10808;48.010;11.326;2023-06-14T05:16:40;13.60;92.10
21298;DHT22;10808;48.010;11.326;2023-06-14T05:19:07;13.80;92.70
21298;DHT22;10808;48.010;11.326;2023-06-14T05:21:33;14.00;92.60
21298;DHT22;10808;48.010;11.326;2023-06-14T05:24:00;14.10;91.70
21298;DHT22;10808;48.010;11.326;2023-06-14T05:26:27;14.30;91.10
21298;DHT22;10808;48.010;11.326;2023-06-14T05:28:56;14.50;91.10
21298;DHT22;10808;48.010;11.326;2023-06-14T05:31:23;14.70;90.10
21298;DHT22;10808;48.010;11.326;2023-06-14T05:33:51;15.00;89.10
21298;DHT22;10808;48.010;11.326;2023-06-14T05:36:17;15.20;87.80
21298;DHT22;10808;48.010;11.326;2023-06-14T05:38:44;15.40;87.60
21298;DHT22;10808;48.010;11.326;2023-06-14T05:41:11;15.70;87.00
21298;DHT22;10808;48.010;11.326;2023-06-14T05:43:37;15.90;85.40
21298;DHT22;10808;48.010;11.326;2023-06-14T05:46:03;16.20;84.40
21298;DHT22;10808;48.010;11.326;2023-06-14T05:48:30;16.50;83.60
21298;DHT22;10808;48.010;11.326;2023-06-14T05:50:56;16.70;82.50
21298;DHT22;10808;48.010;11.326;2023-06-14T05:53:22;16.90;81.60
21298;DHT22;10808;48.010;11.326;2023-06-14T05:55:50;17.20;80.50
21298;DHT22;10808;48.010;11.326;2023-06-14T05:58:17;17.50;78.90
21298;DHT22;10808;48.010;11.326;2023-06-14T06:00:43;17.70;76.90
21298;DHT22;10808;48.010;11.326;2023-06-14T06:03:09;18.00;77.20
21298;DHT22;10808;48.010;11.326;2023-06-14T06:05:37;18.40;77.80
21298;DHT22;10808;48.010;11.326;2023-06-14T06:08:03;18.80;76.20
21298;DHT22;10808;48.010;11.326;2023-06-14T06:10:29;19.00;73.00
21298;DHT22;10808;48.010;11.326;2023-06-14T06:12:55;19.20;71.00
21298;DHT22;10808;48.010;11.326;2023-06-14T06:15:21;19.40;70.20
21298;DHT22;10808;48.010;11.326;2023-06-14T06:17:47;19.60;69.70
21298;DHT22;10808;48.010;11.326;2023-06-14T06:20:13;19.90;69.30
21298;DHT22;10808;48.010;11.326;2023-06-14T06:22:43;20.10;68.90
21298;DHT22;10808;48.010;11.326;2023-06-14T06:25:09;20.40;68.60
21298;DHT22;10808;48.010;11.326;2023-06-14T06:27:35;20.70;69.10
21298;DHT22;10808;48.010;11.326;2023-06-14T06:30:06;21.00;68.70
21298;DHT22;10808;48.010;11.326;2023-06-14T06:32:32;21.20;66.10
21298;DHT22;10808;48.010;11.326;2023-06-14T06:34:58;21.40;66.40
21298;DHT22;10808;48.010;11.326;2023-06-14T06:37:26;21.60;65.00
21298;DHT22;10808;48.010;11.326;2023-06-14T06:39:52;22.00;64.40
21298;DHT22;10808;48.010;11.326;2023-06-14T06:42:18;22.20;63.70
21298;DHT22;10808;48.010;11.326;2023-06-14T06:44:44;22.30;63.70
21298;DHT22;10808;48.010;11.326;2023-06-14T06:47:11;22.70;64.40
21298;DHT22;10808;48.010;11.326;2023-06-14T06:49:37;23.00;64.60
21298;DHT22;10808;48.010;11.326;2023-06-14T06:52:04;23.20;62.70
21298;DHT22;10808;48.010;11.326;2023-06-14T06:54:31;23.50;63.00
21298;DHT22;10808;48.010;11.326;2023-06-14T06:56:57;23.70;62.60
21298;DHT22;10808;48.010;11.326;2023-06-14T06:59:23;24.10;61.80
21298;DHT22;10808;48.010;11.326;2023-06-14T07:01:49;24.20;59.60
21298;DHT22;10808;48.010;11.326;2023-06-14T07:04:15;24.40;59.30
21298;DHT22;10808;48.010;11.326;2023-06-14T07:06:42;24.40;59.10
21298;DHT22;10808;48.010;11.326;2023-06-14T07:09:09;24.50;60.00
21298;DHT22;10808;48.010;11.326;2023-06-14T07:11:43;24.80;59.90
21298;DHT22;10808;48.010;11.326;2023-06-14T07:14:09;25.00;58.70
21298;DHT22;10808;48.010;11.326;2023-06-14T07:16:35;25.30;59.00
21298;DHT22;10808;48.010;11.326;2023-06-14T07:19:02;25.60;58.60
21298;DHT22;10808;48.010;11.326;2023-06-14T07:21:28;25.80;57.00
21298;DHT22;10808;48.010;11.326;2023-06-14T07:23:55;26.10;57.70
21298;DHT22;10808;48.010;11.326;2023-06-14T07:26:21;26.30;56.00
21298;DHT22;10808;48.010;11.326;2023-06-14T07:28:48;26.40;55.60
21298;DHT22;10808;48.010;11.326;2023-06-14T07:31:15;26.60;57.00
21298;DHT22;10808;48.010;11.326;2023-06-14T07:33:42;26.80;55.90
21298;DHT22;10808;48.010;11.326;2023-06-14T07:36:08;27.30;56.20
21298;DHT22;10808;48.010;11.326;2023-06-14T07:38:34;27.60;57.00
21298;DHT22;10808;48.010;11.326;2023-06-14T07:41:00;27.70;52.90
21298;DHT22;10808;48.010;11.326;2023-06-14T07:43:26;27.80;53.60
21298;DHT22;10808;48.010;11.326;2023-06-14T07:45:52;27.80;53.30
21298;DHT22;10808;48.010;11.326;2023-06-14T07:48:18;28.10;53.80
21298;DHT22;10808;48.010;11.326;2023-06-14T07:50:44;28.40;53.70
21298;DHT22;10808;48.010;11.326;2023-06-14T07:53:11;28.60;52.60
21298;DHT22;10808;48.010;11.326;2023-06-14T07:55:37;28.60;53.30
21298;DHT22;10808;48.010;11.326;2023-06-14T07:58:03;28.90;53.40
21298;DHT22;10808;48.010;11.326;2023-06-14T08:00:29;29.30;51.90
21298;DHT22;10808;48.010;11.326;2023-06-14T08:02:55;29.70;51.40
21298;DHT22;10808;48.010;11.326;2023-06-14T08:05:25;30.00;49.80
21298;DHT22;10808;48.010;11.326;2023-06-14T08:07:55;30.10;49.20
21298;DHT22;10808;48.010;11.326;2023-06-14T08:10:21;30.20;50.40
21298;DHT22;10808;48.010;11.326;2023-06-14T08:12:48;30.50;49.50
21298;DHT22;10808;48.010;11.326;2023-06-14T08:15:17;30.40;47.70
21298;DHT22;10808;48.010;11.326;2023-06-14T08:17:43;30.60;48.80
21298;DHT22;10808;48.010;11.326;2023-06-14T08:20:10;30.60;47.70
21298;DHT22;10808;48.010;11.326;2023-06-14T08:22:36;30.60;49.40
21298;DHT22;10808;48.010;11.326;2023-06-14T08:25:03;30.80;48.60
21298;DHT22;10808;48.010;11.326;2023-06-14T08:27:30;31.00;48.40
21298;DHT22;10808;48.010;11.326;2023-06-14T08:29:56;31.20;48.20
21298;DHT22;10808;48.010;11.326;2023-06-14T08:32:22;31.20;45.80
21298;DHT22;10808;48.010;11.326;2023-06-14T08:34:48;31.20;47.30
21298;DHT22;10808;48.010;11.326;2023-06-14T08:37:14;31.60;47.10
21298;DHT22;10808;48.010;11.326;2023-06-14T08:39:41;31.80;45.70
21298;DHT22;10808;48.010;11.326;2023-06-14T08:42:07;32.10;45.10
21298;DHT22;10808;48.010;11.326;2023-06-14T08:44:34;32.30;45.70
21298;DHT22;10808;48.010;11.326;2023-06-14T08:47:01;32.40;44.20
21298;DHT22;10808;48.010;11.326;2023-06-14T08:49:29;32.20;44.90
21298;DHT22;10808;48.010;11.326;2023-06-14T08:51:58;32.30;44.70
21298;DHT22;10808;48.010;11.326;2023-06-14T08:54:28;32.40;44.70
21298;DHT22;10808;48.010;11.326;2023-06-14T08:57:00;32.70;44.10
21298;DHT22;10808;48.010;11.326;2023-06-14T08:59:26;32.80;43.20
21298;DHT22;10808;48.010;11.326;2023-06-14T09:01:53;33.20;43.60
21298;DHT22;10808;48.010;11.326;2023-06-14T09:04:23;33.00;43.00
21298;DHT22;10808;48.010;11.326;2023-06-14T09:06:50;33.00;42.40
21298;DHT22;10808;48.010;11.326;2023-06-14T09:09:21;33.00;42.30
21298;DHT22;10808;48.010;11.326;2023-06-14T09:11:50;33.20;43.40
21298;DHT22;10808;48.010;11.326;2023-06-14T09:14:18;33.60;43.70
21298;DHT22;10808;48.010;11.326;2023-06-14T09:16:45;33.70;42.40
21298;DHT22;10808;48.010;11.326;2023-06-14T09:19:24;33.70;42.10
21298;DHT22;10808;48.010;11.326;2023-06-14T09:21:50;33.90;42.80
21298;DHT22;10808;48.010;11.326;2023-06-14T09:24:19;34.00;42.10
21298;DHT22;10808;48.010;11.326;2023-06-14T09:26:50;34.20;42.00
21298;DHT22;10808;48.010;11.326;2023-06-14T09:29:17;34.30;41.10
21298;DHT22;10808;48.010;11.326;2023-06-14T09:31:46;34.40;40.70
21298;DHT22;10808;48.010;11.326;2023-06-14T09:34:12;34.60;40.80
21298;DHT22;10808;48.010;11.326;2023-06-14T09:36:39;35.00;41.60
21298;DHT22;10808;48.010;11.326;2023-06-14T09:39:08;35.50;40.80
21298;DHT22;10808;48.010;11.326;2023-06-14T09:41:36;35.70;39.40
21298;DHT22;10808;48.010;11.326;2023-06-14T09:44:10;35.80;40.20
21298;DHT22;10808;48.010;11.326;2023-06-14T09:46:37;35.90;40.20
21298;DHT22;10808;48.010;11.326;2023-06-14T09:49:04;35.80;39.30
21298;DHT22;10808;48.010;11.326;2023-06-14T09:51:31;36.10;39.60
21298;DHT22;10808;48.010;11.326;2023-06-14T09:54:02;36.40;40.10
21298;DHT22;10808;48.010;11.326;2023-06-14T09:56:42;36.50;39.00
21298;DHT22;10808;48.010;11.326;2023-06-14T09:59:10;36.60;39.10
21298;DHT22;10808;48.010;11.326;2023-06-14T10:01:42;36.70;38.70
21298;DHT22;10808;48.010;11.326;2023-06-14T10:04:09;36.90;40.00
21298;DHT22;10808;48.010;11.326;2023-06-14T10:06:39;37.20;39.00
21298;DHT22;10808;48.010;11.326;2023-06-14T10:09:08;37.60;38.80
21298;DHT22;10808;48.010;11.326;2023-06-14T10:11:35;38.00;39.20
21298;DHT22;10808;48.010;11.326;2023-06-14T10:14:05;38.00;39.10
21298;DHT22;10808;48.010;11.326;2023-06-14T10:16:34;38.10;37.80
21298;DHT22;10808;48.010;11.326;2023-06-14T10:19:24;38.00;36.60
21298;DHT22;10808;48.010;11.326;2023-06-14T10:21:58;37.90;37.50
21298;DHT22;10808;48.010;11.326;2023-06-14T10:24:35;38.00;37.90
21298;DHT22;10808;48.010;11.326;2023-06-14T10:27:06;38.30;37.70
21298;DHT22;10808;48.010;11.326;2023-06-14T10:30:02;38.40;38.50
21298;DHT22;10808;48.010;11.326;2023-06-14T10:32:28;38.30;37.80
21298;DHT22;10808;48.010;11.326;2023-06-14T10:35:20;38.30;37.40
21298;DHT22;10808;48.010;11.326;2023-06-14T10:37:46;38.20;36.80
21298;DHT22;10808;48.010;11.326;2023-06-14T10:40:30;38.10;38.10
21298;DHT22;10808;48.010;11.326;2023-06-14T10:42:56;38.00;36.20
21298;DHT22;10808;48.010;11.326;2023-06-14T10:45:22;38.30;37.20
21298;DHT22;10808;48.010;11.326;2023-06-14T10:47:49;38.40;36.00
21298;DHT22;10808;48.010;11.326;2023-06-14T10:50:27;38.10;36.80
21298;DHT22;10808;48.010;11.326;2023-06-14T10:52:54;37.50;37.00
21298;DHT22;10808;48.010;11.326;2023-06-14T10:55:22;37.50;37.80
21298;DHT22;10808;48.010;11.326;2023-06-14T10:57:53;37.80;38.20
21298;DHT22;10808;48.010;11.326;2023-06-14T11:00:25;38.00;37.00
21298;DHT22;10808;48.010;11.326;2023-06-14T11:05:55;37.90;38.70
21298;DHT22;10808;48.010;11.326;2023-06-14T11:11:13;37.20;37.80
21298;DHT22;10808;48.010;11.326;2023-06-14T11:13:41;36.60;39.10
21298;DHT22;10808;48.010;11.326;2023-06-14T11:16:17;36.30;39.10
21298;DHT22;10808;48.010;11.326;2023-06-14T11:18:45;36.20;39.70
21298;DHT22;10808;48.010;11.326;2023-06-14T11:21:15;36.30;39.20
21298;DHT22;10808;48.010;11.326;2023-06-14T11:23:41;36.40;39.40
21298;DHT22;10808;48.010;11.326;2023-06-14T11:26:07;36.50;39.70
21298;DHT22;10808;48.010;11.326;2023-06-14T11:28:39;36.70;39.50
21298;DHT22;10808;48.010;11.326;2023-06-14T11:31:06;36.70;39.00
21298;DHT22;10808;48.010;11.326;2023-06-14T11:33:34;36.70;38.40
21298;DHT22;10808;48.010;11.326;2023-06-14T11:36:03;36.80;38.70
21298;DHT22;10808;48.010;11.326;2023-06-14T11:38:34;36.50;38.90
21298;DHT22;10808;48.010;11.326;2023-06-14T11:41:00;36.50;38.90
21298;DHT22;10808;48.010;11.326;2023-06-14T11:43:26;36.50;39.00
21298;DHT22;10808;48.010;11.326;2023-06-14T11:45:53;36.60;38.70
21298;DHT22;10808;48.010;11.326;2023-06-14T11:48:19;36.80;39.00
21298;DHT22;10808;48.010;11.326;2023-06-14T11:50:49;36.80;38.30
21298;DHT22;10808;48.010;11.326;2023-06-14T11:53:16;37.00;37.90
21298;DHT22;10808;48.010;11.326;2023-06-14T11:55:42;36.70;37.90
21298;DHT22;10808;48.010;11.326;2023-06-14T11:58:11;36.90;38.50
21298;DHT22;10808;48.010;11.326;2023-06-14T12:00:37;37.20;37.40
21298;DHT22;10808;48.010;11.326;2023-06-14T12:03:03;37.30;38.10
21298;DHT22;10808;48.010;11.326;2023-06-14T12:05:29;37.50;38.40
21298;DHT22;10808;48.010;11.326;2023-06-14T12:07:59;37.60;37.60
21298;DHT22;10808;48.010;11.326;2023-06-14T12:10:27;37.20;37.20
21298;DHT22;10808;48.010;11.326;2023-06-14T12:12:57;36.80;39.40
21298;DHT22;10808;48.010;11.326;2023-06-14T12:15:23;36.40;38.90
21298;DHT22;10808;48.010;11.326;2023-06-14T12:17:49;35.80;39.50
21298;DHT22;10808;48.010;11.326;2023-06-14T12:20:16;35.80;39.80
21298;DHT22;10808;48.010;11.326;2023-06-14T12:22:52;36.10;39.60
21298;DHT22;10808;48.010;11.326;2023-06-14T12:25:35;36.10;39.80
21298;DHT22;10808;48.010;11.326;2023-06-14T12:28:09;36.30;39.30
21298;DHT22;10808;48.010;11.326;2023-06-14T12:30:37;36.40;39.40
21298;DHT22;10808;48.010;11.326;2023-06-14T12:33:03;36.50;38.20
21298;DHT22;10808;48.010;11.326;2023-06-14T12:35:30;36.60;39.60
21298;DHT22;10808;48.010;11.326;2023-06-14T12:37:56;36.80;39.60
21298;DHT22;10808;48.010;11.326;2023-06-14T12:40:23;36.90;38.50
21298;DHT22;10808;48.010;11.326;2023-06-14T12:42:50;36.90;38.70
21298;DHT22;10808;48.010;11.326;2023-06-14T12:45:16;37.10;39.60
21298;DHT22;10808;48.010;11.326;2023-06-14T12:47:42;37.50;39.00
21298;DHT22;10808;48.010;11.326;2023-06-14T12:50:08;37.70;37.50
21298;DHT22;10808;48.010;11.326;2023-06-14T12:52:34;37.40;39.40
21298;DHT22;10808;48.010;11.326;2023-06-14T12:55:05;37.50;38.20
21298;DHT22;10808;48.010;11.326;2023-06-14T12:57:31;37.30;38.30
21298;DHT22;10808;48.010;11.326;2023-06-14T12:59:59;37.00;37.60
21298;DHT22;10808;48.010;11.326;2023-06-14T13:02:25;37.00;39.00
21298;DHT22;10808;48.010;11.326;2023-06-14T13:04:51;37.20;38.60
21298;DHT22;10808;48.010;11.326;2023-06-14T13:07:17;37.40;38.40
21298;DHT22;10808;48.010;11.326;2023-06-14T13:09:44;37.50;38.00
21298;DHT22;10808;48.010;11.326;2023-06-14T13:12:10;37.40;37.10
21298;DHT22;10808;48.010;11.326;2023-06-14T13:14:38;37.20;37.30
21298;DHT22;10808;48.010;11.326;2023-06-14T13:17:08;37.40;38.40
21298;DHT22;10808;48.010;11.326;2023-06-14T13:19:34;37.80;37.10
21298;DHT22;10808;48.010;11.326;2023-06-14T13:22:00;37.80;37.60
21298;DHT22;10808;48.010;11.326;2023-06-14T13:24:27;38.00;36.60
21298;DHT22;10808;48.010;11.326;2023-06-14T13:26:56;38.30;36.50
21298;DHT22;10808;48.010;11.326;2023-06-14T13:29:23;38.50;36.70
21298;DHT22;10808;48.010;11.326;2023-06-14T13:31:49;38.80;36.80
21298;DHT22;10808;48.010;11.326;2023-06-14T13:34:15;39.10;36.40
21298;DHT22;10808;48.010;11.326;2023-06-14T13:36:42;39.10;36.30
21298;DHT22;10808;48.010;11.326;2023-06-14T13:39:08;39.00;36.10
21298;DHT22;10808;48.010;11.326;2023-06-14T13:41:34;38.70;36.60
21298;DHT22;10808;48.010;11.326;2023-06-14T13:44:01;38.30;36.90
21298;DHT22;10808;48.010;11.326;2023-06-14T13:46:30;38.10;36.90
21298;DHT22;10808;48.010;11.326;2023-06-14T13:48:56;37.90;37.70
21298;DHT22;10808;48.010;11.326;2023-06-14T13:51:23;37.60;36.90
21298;DHT22;10808;48.010;11.326;2023-06-14T13:53:49;37.70;36.80
21298;DHT22;10808;48.010;11.326;2023-06-14T13:56:16;37.90;36.80
21298;DHT22;10808;48.010;11.326;2023-06-14T13:58:43;38.30;36.70
21298;DHT22;10808;48.010;11.326;2023-06-14T14:01:09;38.60;36.10
21298;DHT22;10808;48.010;11.326;2023-06-14T14:03:35;38.20;36.30
21298;DHT22;10808;48.010;11.326;2023-06-14T14:06:02;38.00;36.00
21298;DHT22;10808;48.010;11.326;2023-06-14T14:08:29;37.90;37.20
21298;DHT22;10808;48.010;11.326;2023-06-14T14:10:55;37.90;36.90
21298;DHT22;10808;48.010;11.326;2023-06-14T14:13:22;37.90;36.10
21298;DHT22;10808;48.010;11.326;2023-06-14T14:15:48;38.00;36.80
21298;DHT22;10808;48.010;11.326;2023-06-14T14:18:17;37.90;36.70
21298;DHT22;10808;48.010;11.326;2023-06-14T14:20:43;38.30;36.20
21298;DHT22;10808;48.010;11.326;2023-06-14T14:23:09;38.30;35.60
21298;DHT22;10808;48.010;11.326;2023-06-14T14:25:35;38.50;35.20
21298;DHT22;10808;48.010;11.326;2023-06-14T14:28:01;38.50;35.90
21298;DHT22;10808;48.010;11.326;2023-06-14T14:30:27;38.70;35.50
21298;DHT22;10808;48.010;11.326;2023-06-14T14:32:53;38.70;35.50
21298;DHT22;10808;48.010;11.326;2023-06-14T14:35:19;38.90;35.70
21298;DHT22;10808;48.010;11.326;2023-06-14T14:37:46;39.00;35.90
21298;DHT22;10808;48.010;11.326;2023-06-14T14:40:12;38.90;34.70
21298;DHT22;10808;48.010;11.326;2023-06-14T14:42:38;38.60;35.90
21298;DHT22;10808;48.010;11.326;2023-06-14T14:45:04;38.40;36.20
21298;DHT22;10808;48.010;11.326;2023-06-14T14:47:31;38.30;36.30
21298;DHT22;10808;48.010;11.326;2023-06-14T14:49:57;38.30;36.40
21298;DHT22;10808;48.010;11.326;2023-06-14T14:52:23;38.10;35.40
21298;DHT22;10808;48.010;11.326;2023-06-14T14:54:49;38.00;35.30
21298;DHT22;10808;48.010;11.326;2023-06-14T14:57:15;37.70;35.90
21298;DHT22;10808;48.010;11.326;2023-06-14T14:59:41;37.70;36.20
21298;DHT22;10808;48.010;11.326;2023-06-14T15:02:07;37.70;36.00
21298;DHT22;10808;48.010;11.326;2023-06-14T15:04:33;37.60;35.70
21298;DHT22;10808;48.010;11.326;2023-06-14T15:06:59;37.10;35.30
21298;DHT22;10808;48.010;11.326;2023-06-14T15:09:25;36.90;36.90
21298;DHT22;10808;48.010;11.326;2023-06-14T15:11:51;36.70;36.20
21298;DHT22;10808;48.010;11.326;2023-06-14T15:14:17;36.40;37.00
21298;DHT22;10808;48.010;11.326;2023-06-14T15:16:43;36.30;36.60
21298;DHT22;10808;48.010;11.326;2023-06-14T15:19:10;36.10;37.30
21298;DHT22;10808;48.010;11.326;2023-06-14T15:21:36;35.90;36.40
21298;DHT22;10808;48.010;11.326;2023-06-14T15:24:02;35.50;37.50
21298;DHT22;10808;48.010;11.326;2023-06-14T15:26:28;35.20;36.50
21298;DHT22;10808;48.010;11.326;2023-06-14T15:28:55;34.70;37.40